sensor_id;sensor_type;location;lat;lon;timestamp;temperature;humidity
3846;DHT22;1938;50.812;7.738;2023-03-01T00:01:40;-1.30;99.90
3846;DHT22;1938;50.812;7.738;2023-03-01T00:04:05;-1.50;99.90
3846;DHT22;1938;50.812;7.738;2023-03-01T00:06:31;-1.60;99.90
3846;DHT22;1938;50.812;7.738;2023-03-01T00:08:57;-1.60;99.90
3846;DHT22;1938;50.812;7.738;2023-03-01T00:11:28;-1.80;99.90
3846;DHT22;1938;50.812;7.738;2023-03-01T00:13:56;-1.70;99.90
3846;DHT22;1938;50.812;7.738;2023-03-01T00:16:25;-1.90;99.90
3846;DHT22;1938;50.812;7.738;2023-03-01T00:18:51;-1.90;99.90
3846;DHT22;1938;50.812;7.738;2023-03-01T00:21:16;-1.90;99.90
3846;DHT22;1938;50.812;7.738;2023-03-01T00:23:43;-1.70;99.90
3846;DHT22;1938;50.812;7.738;2023-03-01T00:26:11;-1.50;99.90
3846;DHT22;1938;50.812;7.738;2023-03-01T00:28:37;-1.40;99.90
3846;DHT22;1938;50.812;7.738;2023-03-01T00:31:07;-1.50;99.90
3846;DHT22;1938;50.812;7.738;2023-03-01T00:33:33;-1.50;99.90
3846;DHT22;1938;50.812;7.738;2023-03-01T00:35:59;-1.50;99.90
3846;DHT22;1938;50.812;7.738;2023-03-01T00:38:25;-1.60;99.90
3846;DHT22;1938;50.812;7.738;2023-03-01T00:40:50;-1.60;99.90
3846;DHT22;1938;50.812;7.738;2023-03-01T00:43:16;-1.70;99.90
3846;DHT22;1938;50.812;7.738;2023-03-01T00:45:41;-1.60;99.90
3846;DHT22;1938;50.812;7.738;2023-03-01T00:48:07;-1.50;1.00
3846;DHT22;1938;50.812;7.738;2023-03-01T00:50:33;-1.20;99.90
3846;DHT22;1938;50.812;7.738;2023-03-01T00:52:58;-1.30;99.90
3846;DHT22;1938;50.812;7.738;2023-03-01T00:55:25;-1.40;99.90
3846;DHT22;1938;50.812;7.738;2023-03-01T00:57:50;-1.50;99.90
3846;DHT22;1938;50.812;7.738;2023-03-01T01:00:17;-1.50;99.90
3846;DHT22;1938;50.812;7.738;2023-03-01T01:02:42;-1.50;99.90
3846;DHT22;1938;50.812;7.738;2023-03-01T01:05:08;-1.50;99.90
3846;DHT22;1938;50.812;7.738;2023-03-01T01:07:34;-1.50;99.90
3846;DHT22;1938;50.812;7.738;2023-03-01T01:10:00;-1.70;99.90
3846;DHT22;1938;50.812;7.738;2023-03-01T01:12:25;-1.70;1.00
3846;DHT22;1938;50.812;7.738;2023-03-01T01:14:51;-1.40;1.00
3846;DHT22;1938;50.812;7.738;2023-03-01T01:17:16;-1.30;99.90
3846;DHT22;1938;50.812;7.738;2023-03-01T01:19:42;-1.70;99.90
3846;DHT22;1938;50.812;7.738;2023-03-01T01:22:07;-1.90;99.90
3846;DHT22;1938;50.812;7.738;2023-03-01T01:24:33;-1.80;99.90
3846;DHT22;1938;50.812;7.738;2023-03-01T01:26:59;-1.90;99.90
3846;DHT22;1938;50.812;7.738;2023-03-01T01:29:25;-1.90;99.90
3846;DHT22;1938;50.812;7.738;2023-03-01T01:31:50;-2.00;99.90
3846;DHT22;1938;50.812;7.738;2023-03-01T01:34:19;-2.00;99.90
3846;DHT22;1938;50.812;7.738;2023-03-01T01:36:48;-1.80;99.90
3846;DHT22;1938;50.812;7.738;2023-03-01T01:39:15;-1.70;88.70
3846;DHT22;1938;50.812;7.738;2023-03-01T01:41:41;-1.50;99.90
3846;DHT22;1938;50.812;7.738;2023-03-01T01:44:22;-1.50;99.90
3846;DHT22;1938;50.812;7.738;2023-03-01T01:47:03;-1.60;99.90
3846;DHT22;1938;50.812;7.738;2023-03-01T01:49:38;-1.60;99.90
3846;DHT22;1938;50.812;7.738;2023-03-01T01:52:09;-1.60;99.90
3846;DHT22;1938;50.812;7.738;2023-03-01T01:54:44;-1.60;99.90
3846;DHT22;1938;50.812;7.738;2023-03-01T01:57:16;-1.60;99.90
3846;DHT22;1938;50.812;7.738;2023-03-01T01:59:49;-1.70;99.90
3846;DHT22;1938;50.812;7.738;2023-03-01T02:02:15;-1.70;99.90
3846;DHT22;1938;50.812;7.738;2023-03-01T02:04:41;-1.50;99.90
3846;DHT22;1938;50.812;7.738;2023-03-01T02:07:14;-1.50;99.90
3846;DHT22;1938;50.812;7.738;2023-03-01T02:09:45;-1.60;99.90
3846;DHT22;1938;50.812;7.738;2023-03-01T02:12:11;-1.60;99.90
3846;DHT22;1938;50.812;7.738;2023-03-01T02:14:37;-1.70;99.90
3846;DHT22;1938;50.812;7.738;2023-03-01T02:17:03;-1.80;99.90
3846;DHT22;1938;50.812;7.738;2023-03-01T02:19:57;-1.80;99.90
3846;DHT22;1938;50.812;7.738;2023-03-01T02:22:30;-1.80;99.90
3846;DHT22;1938;50.812;7.738;2023-03-01T02:27:38;-1.80;99.90
3846;DHT22;1938;50.812;7.738;2023-03-01T02:30:06;-1.80;99.90
3846;DHT22;1938;50.812;7.738;2023-03-01T02:32:33;-1.90;99.90
3846;DHT22;1938;50.812;7.738;2023-03-01T02:34:59;-1.80;99.90
3846;DHT22;1938;50.812;7.738;2023-03-01T02:37:26;-1.90;99.90
3846;DHT22;1938;50.812;7.738;2023-03-01T02:40:06;-1.90;99.90
3846;DHT22;1938;50.812;7.738;2023-03-01T02:42:53;-1.90;99.90
3846;DHT22;1938;50.812;7.738;2023-03-01T02:45:19;-1.90;99.90
3846;DHT22;1938;50.812;7.738;2023-03-01T02:47:45;-2.00;99.90
3846;DHT22;1938;50.812;7.738;2023-03-01T02:55:28;-2.00;1.00
3846;DHT22;1938;50.812;7.738;2023-03-01T02:57:55;-1.90;99.90
3846;DHT22;1938;50.812;7.738;2023-03-01T03:00:26;-1.90;99.90
3846;DHT22;1938;50.812;7.738;2023-03-01T03:02:54;-1.90;99.90
3846;DHT22;1938;50.812;7.738;2023-03-01T03:05:27;-1.90;99.90
3846;DHT22;1938;50.812;7.738;2023-03-01T03:07:54;-1.90;99.90
3846;DHT22;1938;50.812;7.738;2023-03-01T03:10:26;-1.90;99.90
3846;DHT22;1938;50.812;7.738;2023-03-01T03:12:57;-2.00;99.90
3846;DHT22;1938;50.812;7.738;2023-03-01T03:15:24;-1.80;1.00
3846;DHT22;1938;50.812;7.738;2023-03-01T03:17:51;-1.80;99.90
3846;DHT22;1938;50.812;7.738;2023-03-01T03:20:19;-1.80;99.90
3846;DHT22;1938;50.812;7.738;2023-03-01T03:22:47;-1.90;99.90
3846;DHT22;1938;50.812;7.738;2023-03-01T03:25:13;-1.80;99.90
3846;DHT22;1938;50.812;7.738;2023-03-01T03:27:41;-1.80;99.90
3846;DHT22;1938;50.812;7.738;2023-03-01T03:30:09;-1.90;99.90
3846;DHT22;1938;50.812;7.738;2023-03-01T03:32:36;-1.90;99.90
3846;DHT22;1938;50.812;7.738;2023-03-01T03:35:03;-2.00;99.90
3846;DHT22;1938;50.812;7.738;2023-03-01T03:37:38;-2.00;99.90
3846;DHT22;1938;50.812;7.738;2023-03-01T03:40:22;-1.90;99.90
3846;DHT22;1938;50.812;7.738;2023-03-01T03:42:48;-2.10;99.90
3846;DHT22;1938;50.812;7.738;2023-03-01T03:45:15;-2.10;99.90
3846;DHT22;1938;50.812;7.738;2023-03-01T03:47:42;-2.20;99.90
3846;DHT22;1938;50.812;7.738;2023-03-01T03:50:09;-2.30;1.00
3846;DHT22;1938;50.812;7.738;2023-03-01T03:52:35;-2.20;1.00
3846;DHT22;1938;50.812;7.738;2023-03-01T03:55:00;-2.20;1.00
3846;DHT22;1938;50.812;7.738;2023-03-01T03:57:26;-2.20;1.00
3846;DHT22;1938;50.812;7.738;2023-03-01T03:59:51;-2.20;1.00
3846;DHT22;1938;50.812;7.738;2023-03-01T04:02:18;-2.00;84.50
3846;DHT22;1938;50.812;7.738;2023-03-01T04:04:48;-2.10;99.90
3846;DHT22;1938;50.812;7.738;2023-03-01T04:07:15;-2.10;1.00
3846;DHT22;1938;50.812;7.738;2023-03-01T04:09:41;-2.10;1.00
3846;DHT22;1938;50.812;7.738;2023-03-01T04:12:09;-2.20;1.00
3846;DHT22;1938;50.812;7.738;2023-03-01T04:14:35;-2.20;1.00
3846;DHT22;1938;50.812;7.738;2023-03-01T04:17:01;-2.20;1.00
3846;DHT22;1938;50.812;7.738;2023-03-01T04:19:30;-2.30;1.00
3846;DHT22;1938;50.812;7.738;2023-03-01T04:22:03;-2.40;1.00
3846;DHT22;1938;50.812;7.738;2023-03-01T04:24:35;-2.30;1.00
3846;DHT22;1938;50.812;7.738;2023-03-01T04:27:00;-2.10;99.90
3846;DHT22;1938;50.812;7.738;2023-03-01T04:29:26;-2.10;1.00
3846;DHT22;1938;50.812;7.738;2023-03-01T04:31:51;-2.30;1.00
3846;DHT22;1938;50.812;7.738;2023-03-01T04:34:17;-2.30;1.00
3846;DHT22;1938;50.812;7.738;2023-03-01T04:36:42;-2.40;1.00
3846;DHT22;1938;50.812;7.738;2023-03-01T04:39:08;-2.40;1.00
3846;DHT22;1938;50.812;7.738;2023-03-01T04:41:38;-2.40;1.00
3846;DHT22;1938;50.812;7.738;2023-03-01T04:44:08;-2.40;1.00
3846;DHT22;1938;50.812;7.738;2023-03-01T04:46:35;-2.50;1.00
3846;DHT22;1938;50.812;7.738;2023-03-01T04:49:02;-2.50;1.00
3846;DHT22;1938;50.812;7.738;2023-03-01T04:51:28;-2.40;99.90
3846;DHT22;1938;50.812;7.738;2023-03-01T04:53:53;-2.30;1.00
3846;DHT22;1938;50.812;7.738;2023-03-01T04:56:19;-2.40;1.00
3846;DHT22;1938;50.812;7.738;2023-03-01T04:58:45;-2.60;1.00
3846;DHT22;1938;50.812;7.738;2023-03-01T05:01:17;-2.50;1.00
3846;DHT22;1938;50.812;7.738;2023-03-01T05:03:44;-2.60;1.00
3846;DHT22;1938;50.812;7.738;2023-03-01T05:06:11;-2.60;1.00
3846;DHT22;1938;50.812;7.738;2023-03-01T05:08:40;-2.70;1.00
3846;DHT22;1938;50.812;7.738;2023-03-01T05:11:06;-2.80;1.00
3846;DHT22;1938;50.812;7.738;2023-03-01T05:13:35;-2.80;1.00
3846;DHT22;1938;50.812;7.738;2023-03-01T05:16:02;-2.60;99.90
3846;DHT22;1938;50.812;7.738;2023-03-01T05:18:30;-2.70;1.00
3846;DHT22;1938;50.812;7.738;2023-03-01T05:21:09;-2.80;1.00
3846;DHT22;1938;50.812;7.738;2023-03-01T05:23:35;-2.90;18.90
3846;DHT22;1938;50.812;7.738;2023-03-01T05:26:02;-2.90;2.40
3846;DHT22;1938;50.812;7.738;2023-03-01T05:28:29;-2.90;1.00
3846;DHT22;1938;50.812;7.738;2023-03-01T05:30:57;-2.90;20.40
3846;DHT22;1938;50.812;7.738;2023-03-01T05:33:23;-2.90;19.10
3846;DHT22;1938;50.812;7.738;2023-03-01T05:35:50;-2.90;12.00
3846;DHT22;1938;50.812;7.738;2023-03-01T05:38:17;-2.90;25.10
3846;DHT22;1938;50.812;7.738;2023-03-01T05:40:44;-2.60;99.90
3846;DHT22;1938;50.812;7.738;2023-03-01T05:43:10;-2.70;1.00
3846;DHT22;1938;50.812;7.738;2023-03-01T05:45:37;-2.90;1.00
3846;DHT22;1938;50.812;7.738;2023-03-01T05:48:05;-3.00;12.70
3846;DHT22;1938;50.812;7.738;2023-03-01T05:50:34;-3.20;45.20
3846;DHT22;1938;50.812;7.738;2023-03-01T05:53:06;-3.20;81.40
3846;DHT22;1938;50.812;7.738;2023-03-01T05:55:33;-3.30;99.90
3846;DHT22;1938;50.812;7.738;2023-03-01T05:58:01;-3.20;99.90
3846;DHT22;1938;50.812;7.738;2023-03-01T06:00:27;-3.10;99.90
3846;DHT22;1938;50.812;7.738;2023-03-01T06:02:54;-3.10;99.90
3846;DHT22;1938;50.812;7.738;2023-03-01T06:05:20;-2.80;99.90
3846;DHT22;1938;50.812;7.738;2023-03-01T06:07:46;-2.80;1.00
3846;DHT22;1938;50.812;7.738;2023-03-01T06:10:13;-2.80;1.00
3846;DHT22;1938;50.812;7.738;2023-03-01T06:12:41;-2.80;11.60
3846;DHT22;1938;50.812;7.738;2023-03-01T06:15:08;-2.80;6.60
3846;DHT22;1938;50.812;7.738;2023-03-01T06:17:35;-2.80;10.40
3846;DHT22;1938;50.812;7.738;2023-03-01T06:20:12;-2.70;19.90
3846;DHT22;1938;50.812;7.738;2023-03-01T06:22:38;-2.80;9.80
3846;DHT22;1938;50.812;7.738;2023-03-01T06:25:05;-2.90;1.00
3846;DHT22;1938;50.812;7.738;2023-03-01T06:27:31;-2.80;54.60
3846;DHT22;1938;50.812;7.738;2023-03-01T06:29:56;-2.80;1.00
3846;DHT22;1938;50.812;7.738;2023-03-01T06:32:22;-3.30;1.00
3846;DHT22;1938;50.812;7.738;2023-03-01T06:34:49;-3.60;99.90
3846;DHT22;1938;50.812;7.738;2023-03-01T06:37:15;-3.90;99.90
3846;DHT22;1938;50.812;7.738;2023-03-01T06:39:41;-3.60;99.90
3846;DHT22;1938;50.812;7.738;2023-03-01T06:42:07;-3.70;99.90
3846;DHT22;1938;50.812;7.738;2023-03-01T06:44:33;-3.80;99.90
3846;DHT22;1938;50.812;7.738;2023-03-01T06:46:59;-3.90;99.90
3846;DHT22;1938;50.812;7.738;2023-03-01T06:49:24;-3.80;99.90
3846;DHT22;1938;50.812;7.738;2023-03-01T06:51:50;-3.80;1.00
3846;DHT22;1938;50.812;7.738;2023-03-01T06:54:15;-3.60;1.00
3846;DHT22;1938;50.812;7.738;2023-03-01T06:56:43;-3.50;1.00
3846;DHT22;1938;50.812;7.738;2023-03-01T06:59:08;-3.30;1.00
3846;DHT22;1938;50.812;7.738;2023-03-01T07:01:34;-3.20;1.00
3846;DHT22;1938;50.812;7.738;2023-03-01T07:04:00;-3.00;1.00
3846;DHT22;1938;50.812;7.738;2023-03-01T07:06:26;-2.80;1.00
3846;DHT22;1938;50.812;7.738;2023-03-01T07:08:51;-2.50;1.00
3846;DHT22;1938;50.812;7.738;2023-03-01T07:11:17;-2.40;99.90
3846;DHT22;1938;50.812;7.738;2023-03-01T07:13:42;-2.20;99.90
3846;DHT22;1938;50.812;7.738;2023-03-01T07:16:08;-2.10;99.90
3846;DHT22;1938;50.812;7.738;2023-03-01T07:18:33;-1.90;91.50
3846;DHT22;1938;50.812;7.738;2023-03-01T07:21:05;-1.80;1.00
3846;DHT22;1938;50.812;7.738;2023-03-01T07:23:31;-1.70;1.00
3846;DHT22;1938;50.812;7.738;2023-03-01T07:25:56;-1.60;1.00
3846;DHT22;1938;50.812;7.738;2023-03-01T07:28:24;-1.40;1.00
3846;DHT22;1938;50.812;7.738;2023-03-01T07:30:49;-1.30;99.90
3846;DHT22;1938;50.812;7.738;2023-03-01T07:33:15;-1.20;99.90
3846;DHT22;1938;50.812;7.738;2023-03-01T07:35:40;-1.10;99.90
3846;DHT22;1938;50.812;7.738;2023-03-01T07:38:06;-0.90;99.90
3846;DHT22;1938;50.812;7.738;2023-03-01T07:40:31;-0.80;99.90
3846;DHT22;1938;50.812;7.738;2023-03-01T07:42:59;-0.70;99.90
3846;DHT22;1938;50.812;7.738;2023-03-01T07:45:28;-0.50;99.90
3846;DHT22;1938;50.812;7.738;2023-03-01T07:47:55;-0.50;99.90
3846;DHT22;1938;50.812;7.738;2023-03-01T07:50:21;-0.40;99.90
3846;DHT22;1938;50.812;7.738;2023-03-01T07:52:49;-0.30;99.90
3846;DHT22;1938;50.812;7.738;2023-03-01T07:55:16;-0.10;99.90
3846;DHT22;1938;50.812;7.738;2023-03-01T07:57:43;0.10;99.90
3846;DHT22;1938;50.812;7.738;2023-03-01T08:00:11;0.30;99.90
3846;DHT22;1938;50.812;7.738;2023-03-01T08:02:37;0.40;99.90
3846;DHT22;1938;50.812;7.738;2023-03-01T08:05:03;0.60;99.90
3846;DHT22;1938;50.812;7.738;2023-03-01T08:07:29;0.90;87.40
3846;DHT22;1938;50.812;7.738;2023-03-01T08:09:54;0.30;19.30
3846;DHT22;1938;50.812;7.738;2023-03-01T08:12:21;0.00;98.40
3846;DHT22;1938;50.812;7.738;2023-03-01T08:14:46;-0.30;99.90
3846;DHT22;1938;50.812;7.738;2023-03-01T08:17:14;-0.30;99.90
3846;DHT22;1938;50.812;7.738;2023-03-01T08:19:39;-0.10;99.90
3846;DHT22;1938;50.812;7.738;2023-03-01T08:22:05;-0.10;99.90
3846;DHT22;1938;50.812;7.738;2023-03-01T08:24:31;0.00;99.90
3846;DHT22;1938;50.812;7.738;2023-03-01T08:26:56;0.10;93.50
3846;DHT22;1938;50.812;7.738;2023-03-01T08:29:22;0.40;43.60
3846;DHT22;1938;50.812;7.738;2023-03-01T08:31:49;1.00;99.90
3846;DHT22;1938;50.812;7.738;2023-03-01T08:34:17;1.90;1.00
3846;DHT22;1938;50.812;7.738;2023-03-01T08:36:45;1.70;1.00
3846;DHT22;1938;50.812;7.738;2023-03-01T08:39:13;1.60;1.00
3846;DHT22;1938;50.812;7.738;2023-03-01T08:41:39;1.80;1.00
3846;DHT22;1938;50.812;7.738;2023-03-01T08:44:05;1.70;1.00
3846;DHT22;1938;50.812;7.738;2023-03-01T08:46:41;1.80;1.00
3846;DHT22;1938;50.812;7.738;2023-03-01T08:49:10;1.80;1.00
3846;DHT22;1938;50.812;7.738;2023-03-01T08:51:36;1.90;1.00
3846;DHT22;1938;50.812;7.738;2023-03-01T08:54:07;2.10;1.00
3846;DHT22;1938;50.812;7.738;2023-03-01T08:56:35;2.60;1.00
3846;DHT22;1938;50.812;7.738;2023-03-01T08:59:00;3.20;1.00
3846;DHT22;1938;50.812;7.738;2023-03-01T09:01:26;2.90;1.00
3846;DHT22;1938;50.812;7.738;2023-03-01T09:03:51;2.70;1.00
3846;DHT22;1938;50.812;7.738;2023-03-01T09:06:17;2.70;1.00
3846;DHT22;1938;50.812;7.738;2023-03-01T09:08:45;2.50;1.00
3846;DHT22;1938;50.812;7.738;2023-03-01T09:11:14;2.50;1.00
3846;DHT22;1938;50.812;7.738;2023-03-01T09:13:41;2.40;1.00
3846;DHT22;1938;50.812;7.738;2023-03-01T09:16:08;2.30;1.00
3846;DHT22;1938;50.812;7.738;2023-03-01T09:18:34;2.40;1.00
3846;DHT22;1938;50.812;7.738;2023-03-01T09:21:06;2.60;1.00
3846;DHT22;1938;50.812;7.738;2023-03-01T09:23:43;2.70;1.00
3846;DHT22;1938;50.812;7.738;2023-03-01T09:26:11;2.70;1.00
3846;DHT22;1938;50.812;7.738;2023-03-01T09:28:38;2.70;1.00
3846;DHT22;1938;50.812;7.738;2023-03-01T09:31:04;2.70;1.00
3846;DHT22;1938;50.812;7.738;2023-03-01T09:33:31;2.80;1.00
3846;DHT22;1938;50.812;7.738;2023-03-01T09:35:59;2.80;1.00
3846;DHT22;1938;50.812;7.738;2023-03-01T09:38:26;2.80;1.00
3846;DHT22;1938;50.812;7.738;2023-03-01T09:40:51;2.80;1.00
3846;DHT22;1938;50.812;7.738;2023-03-01T09:43:42;2.90;1.00
3846;DHT22;1938;50.812;7.738;2023-03-01T09:46:09;2.70;1.00
3846;DHT22;1938;50.812;7.738;2023-03-01T09:48:48;3.00;1.00
3846;DHT22;1938;50.812;7.738;2023-03-01T09:51:26;3.40;1.00
3846;DHT22;1938;50.812;7.738;2023-03-01T09:53:52;3.20;1.00
3846;DHT22;1938;50.812;7.738;2023-03-01T10:01:54;3.10;1.00
3846;DHT22;1938;50.812;7.738;2023-03-01T10:04:44;3.50;1.00
3846;DHT22;1938;50.812;7.738;2023-03-01T10:09:55;4.10;1.00
3846;DHT22;1938;50.812;7.738;2023-03-01T10:12:33;4.40;1.00
3846;DHT22;1938;50.812;7.738;2023-03-01T10:15:22;4.10;1.00
3846;DHT22;1938;50.812;7.738;2023-03-01T10:18:02;4.10;1.00
3846;DHT22;1938;50.812;7.738;2023-03-01T10:20:59;4.10;1.00
3846;DHT22;1938;50.812;7.738;2023-03-01T10:23:26;4.20;1.00
3846;DHT22;1938;50.812;7.738;2023-03-01T10:26:07;4.60;1.00
3846;DHT22;1938;50.812;7.738;2023-03-01T10:31:14;5.40;1.00
3846;DHT22;1938;50.812;7.738;2023-03-01T10:33:41;5.10;1.00
3846;DHT22;1938;50.812;7.738;2023-03-01T10:36:07;5.10;1.00
3846;DHT22;1938;50.812;7.738;2023-03-01T10:38:51;5.40;1.00
3846;DHT22;1938;50.812;7.738;2023-03-01T10:41:20;5.40;1.00
3846;DHT22;1938;50.812;7.738;2023-03-01T10:43:52;5.50;1.00
3846;DHT22;1938;50.812;7.738;2023-03-01T10:46:28;5.70;1.00
3846;DHT22;1938;50.812;7.738;2023-03-01T10:49:21;5.60;1.00
3846;DHT22;1938;50.812;7.738;2023-03-01T10:51:49;5.60;1.00
3846;DHT22;1938;50.812;7.738;2023-03-01T10:54:27;6.00;1.00
3846;DHT22;1938;50.812;7.738;2023-03-01T10:57:01;6.20;1.00
3846;DHT22;1938;50.812;7.738;2023-03-01T10:59:38;6.00;1.00
3846;DHT22;1938;50.812;7.738;2023-03-01T11:02:36;5.90;1.00
3846;DHT22;1938;50.812;7.738;2023-03-01T11:08:00;6.00;1.00
3846;DHT22;1938;50.812;7.738;2023-03-01T11:10:34;6.10;1.00
3846;DHT22;1938;50.812;7.738;2023-03-01T11:13:09;6.40;1.00
3846;DHT22;1938;50.812;7.738;2023-03-01T11:15:39;6.30;1.00
3846;DHT22;1938;50.812;7.738;2023-03-01T11:18:05;6.50;1.00
3846;DHT22;1938;50.812;7.738;2023-03-01T11:20:43;6.80;1.00
3846;DHT22;1938;50.812;7.738;2023-03-01T11:23:13;7.10;1.00
3846;DHT22;1938;50.812;7.738;2023-03-01T11:25:42;6.70;1.00
3846;DHT22;1938;50.812;7.738;2023-03-01T11:28:15;6.30;1.00
3846;DHT22;1938;50.812;7.738;2023-03-01T11:33:39;6.60;1.00
3846;DHT22;1938;50.812;7.738;2023-03-01T11:38:41;6.80;1.00
3846;DHT22;1938;50.812;7.738;2023-03-01T11:41:20;6.30;1.00
3846;DHT22;1938;50.812;7.738;2023-03-01T11:43:59;5.90;1.00
3846;DHT22;1938;50.812;7.738;2023-03-01T11:46:35;5.80;1.00
3846;DHT22;1938;50.812;7.738;2023-03-01T11:49:22;5.80;1.00
3846;DHT22;1938;50.812;7.738;2023-03-01T12:05:46;5.90;1.00
3846;DHT22;1938;50.812;7.738;2023-03-01T12:33:53;6.00;1.00
3846;DHT22;1938;50.812;7.738;2023-03-01T12:39:17;6.10;1.00
3846;DHT22;1938;50.812;7.738;2023-03-01T12:47:58;6.40;1.00
3846;DHT22;1938;50.812;7.738;2023-03-01T12:50:26;6.50;1.00
3846;DHT22;1938;50.812;7.738;2023-03-01T12:52:56;6.60;1.00
3846;DHT22;1938;50.812;7.738;2023-03-01T12:55:33;6.50;1.00
3846;DHT22;1938;50.812;7.738;2023-03-01T13:03:51;6.50;1.00
3846;DHT22;1938;50.812;7.738;2023-03-01T13:06:44;6.50;1.00
3846;DHT22;1938;50.812;7.738;2023-03-01T13:09:29;6.70;1.00
3846;DHT22;1938;50.812;7.738;2023-03-01T13:11:56;6.60;1.00
3846;DHT22;1938;50.812;7.738;2023-03-01T13:16:53;6.70;1.00
3846;DHT22;1938;50.812;7.738;2023-03-01T13:19:26;6.90;1.00
3846;DHT22;1938;50.812;7.738;2023-03-01T13:21:54;7.00;1.00
3846;DHT22;1938;50.812;7.738;2023-03-01T13:24:43;7.00;1.00
3846;DHT22;1938;50.812;7.738;2023-03-01T13:32:27;7.10;1.00
3846;DHT22;1938;50.812;7.738;2023-03-01T13:37:44;6.80;1.00
3846;DHT22;1938;50.812;7.738;2023-03-01T13:42:48;6.90;1.00
3846;DHT22;1938;50.812;7.738;2023-03-01T13:45:40;7.00;1.00
3846;DHT22;1938;50.812;7.738;2023-03-01T13:48:18;7.10;1.00
3846;DHT22;1938;50.812;7.738;2023-03-01T13:51:00;7.00;1.00
3846;DHT22;1938;50.812;7.738;2023-03-01T13:53:30;7.00;1.00
3846;DHT22;1938;50.812;7.738;2023-03-01T13:56:13;6.90;1.00
3846;DHT22;1938;50.812;7.738;2023-03-01T13:58:49;7.10;1.00
3846;DHT22;1938;50.812;7.738;2023-03-01T14:01:33;7.20;1.00
3846;DHT22;1938;50.812;7.738;2023-03-01T14:04:01;7.30;1.00
3846;DHT22;1938;50.812;7.738;2023-03-01T14:06:32;7.20;1.00
3846;DHT22;1938;50.812;7.738;2023-03-01T14:09:25;7.20;1.00
3846;DHT22;1938;50.812;7.738;2023-03-01T14:12:12;7.30;1.00
3846;DHT22;1938;50.812;7.738;2023-03-01T14:14:53;7.40;1.00
3846;DHT22;1938;50.812;7.738;2023-03-01T14:19:47;7.20;1.00
3846;DHT22;1938;50.812;7.738;2023-03-01T14:22:21;7.20;1.00
3846;DHT22;1938;50.812;7.738;2023-03-01T14:25:00;7.10;1.00
3846;DHT22;1938;50.812;7.738;2023-03-01T14:27:30;7.20;1.00
3846;DHT22;1938;50.812;7.738;2023-03-01T14:29:58;7.40;1.00
3846;DHT22;1938;50.812;7.738;2023-03-01T14:32:27;7.50;1.00
3846;DHT22;1938;50.812;7.738;2023-03-01T14:34:53;7.30;1.00
3846;DHT22;1938;50.812;7.738;2023-03-01T14:39:52;7.20;1.00
3846;DHT22;1938;50.812;7.738;2023-03-01T14:42:20;7.00;1.00
3846;DHT22;1938;50.812;7.738;2023-03-01T14:44:48;7.00;1.00
3846;DHT22;1938;50.812;7.738;2023-03-01T14:47:25;7.00;1.00
3846;DHT22;1938;50.812;7.738;2023-03-01T14:50:01;7.00;1.00
3846;DHT22;1938;50.812;7.738;2023-03-01T14:52:42;7.10;1.00
3846;DHT22;1938;50.812;7.738;2023-03-01T14:55:20;7.10;1.00
3846;DHT22;1938;50.812;7.738;2023-03-01T14:57:50;7.00;1.00
3846;DHT22;1938;50.812;7.738;2023-03-01T15:00:23;7.00;1.00
3846;DHT22;1938;50.812;7.738;2023-03-01T15:02:52;6.90;1.00
3846;DHT22;1938;50.812;7.738;2023-03-01T15:05:32;6.90;1.00
3846;DHT22;1938;50.812;7.738;2023-03-01T15:08:00;6.80;1.00
3846;DHT22;1938;50.812;7.738;2023-03-01T15:10:36;6.80;1.00
3846;DHT22;1938;50.812;7.738;2023-03-01T15:13:22;6.80;1.00
3846;DHT22;1938;50.812;7.738;2023-03-01T15:15:49;6.70;1.00
3846;DHT22;1938;50.812;7.738;2023-03-01T15:18:27;6.70;1.00
3846;DHT22;1938;50.812;7.738;2023-03-01T15:20:54;6.60;1.00
3846;DHT22;1938;50.812;7.738;2023-03-01T15:23:29;6.50;1.00
3846;DHT22;1938;50.812;7.738;2023-03-01T15:25:56;6.50;1.00
3846;DHT22;1938;50.812;7.738;2023-03-01T15:28:30;6.40;1.00
3846;DHT22;1938;50.812;7.738;2023-03-01T15:31:01;6.40;1.00
3846;DHT22;1938;50.812;7.738;2023-03-01T15:33:30;6.30;1.00
3846;DHT22;1938;50.812;7.738;2023-03-01T15:36:02;6.30;1.00
3846;DHT22;1938;50.812;7.738;2023-03-01T15:41:04;6.10;1.00
3846;DHT22;1938;50.812;7.738;2023-03-01T15:43:56;6.10;1.00
3846;DHT22;1938;50.812;7.738;2023-03-01T15:46:32;6.10;1.00
3846;DHT22;1938;50.812;7.738;2023-03-01T15:49:02;6.00;1.00
3846;DHT22;1938;50.812;7.738;2023-03-01T15:51:36;5.80;1.00
3846;DHT22;1938;50.812;7.738;2023-03-01T15:54:12;5.80;1.00
3846;DHT22;1938;50.812;7.738;2023-03-01T15:56:39;5.80;1.00
3846;DHT22;1938;50.812;7.738;2023-03-01T15:59:05;5.70;1.00
3846;DHT22;1938;50.812;7.738;2023-03-01T16:01:32;5.70;1.00
3846;DHT22;1938;50.812;7.738;2023-03-01T16:04:00;5.60;1.00
3846;DHT22;1938;50.812;7.738;2023-03-01T16:06:25;5.60;1.00
3846;DHT22;1938;50.812;7.738;2023-03-01T16:08:51;5.60;1.00
3846;DHT22;1938;50.812;7.738;2023-03-01T16:11:18;5.60;1.00
3846;DHT22;1938;50.812;7.738;2023-03-01T16:13:44;5.60;1.00
3846;DHT22;1938;50.812;7.738;2023-03-01T16:16:11;5.50;1.00
3846;DHT22;1938;50.812;7.738;2023-03-01T16:18:39;5.50;1.00
3846;DHT22;1938;50.812;7.738;2023-03-01T16:21:04;5.50;1.00
3846;DHT22;1938;50.812;7.738;2023-03-01T16:23:30;5.40;1.00
3846;DHT22;1938;50.812;7.738;2023-03-01T16:25:59;5.30;1.00
3846;DHT22;1938;50.812;7.738;2023-03-01T16:28:26;5.40;1.00
3846;DHT22;1938;50.812;7.738;2023-03-01T16:30:52;5.30;1.00
3846;DHT22;1938;50.812;7.738;2023-03-01T16:33:17;5.30;1.00
3846;DHT22;1938;50.812;7.738;2023-03-01T16:35:43;5.30;1.00
3846;DHT22;1938;50.812;7.738;2023-03-01T16:38:10;5.20;1.00
3846;DHT22;1938;50.812;7.738;2023-03-01T16:40:36;5.20;1.00
3846;DHT22;1938;50.812;7.738;2023-03-01T16:43:02;5.10;1.00
3846;DHT22;1938;50.812;7.738;2023-03-01T16:45:33;5.00;1.00
3846;DHT22;1938;50.812;7.738;2023-03-01T16:48:00;4.90;1.00
3846;DHT22;1938;50.812;7.738;2023-03-01T16:50:26;4.90;1.00
3846;DHT22;1938;50.812;7.738;2023-03-01T16:52:51;4.80;1.00
3846;DHT22;1938;50.812;7.738;2023-03-01T16:55:17;4.70;1.00
3846;DHT22;1938;50.812;7.738;2023-03-01T16:57:43;4.70;1.00
3846;DHT22;1938;50.812;7.738;2023-03-01T17:00:11;4.70;1.00
3846;DHT22;1938;50.812;7.738;2023-03-01T17:02:39;4.60;1.00
3846;DHT22;1938;50.812;7.738;2023-03-01T17:05:05;4.50;1.00
3846;DHT22;1938;50.812;7.738;2023-03-01T17:07:32;4.40;1.00
3846;DHT22;1938;50.812;7.738;2023-03-01T17:09:59;4.40;1.00
3846;DHT22;1938;50.812;7.738;2023-03-01T17:12:25;4.30;1.00
3846;DHT22;1938;50.812;7.738;2023-03-01T17:14:51;4.30;1.00
3846;DHT22;1938;50.812;7.738;2023-03-01T17:17:17;4.20;1.00
3846;DHT22;1938;50.812;7.738;2023-03-01T17:19:42;4.20;1.00
3846;DHT22;1938;50.812;7.738;2023-03-01T17:22:10;4.20;1.00
3846;DHT22;1938;50.812;7.738;2023-03-01T17:24:37;4.10;1.00
3846;DHT22;1938;50.812;7.738;2023-03-01T17:27:02;4.00;1.00
3846;DHT22;1938;50.812;7.738;2023-03-01T17:29:28;3.90;1.00
3846;DHT22;1938;50.812;7.738;2023-03-01T17:31:55;4.00;1.00
3846;DHT22;1938;50.812;7.738;2023-03-01T17:34:21;3.80;1.00
3846;DHT22;1938;50.812;7.738;2023-03-01T17:36:47;3.80;1.00
3846;DHT22;1938;50.812;7.738;2023-03-01T17:39:15;3.80;1.00
3846;DHT22;1938;50.812;7.738;2023-03-01T17:41:41;3.70;1.00
3846;DHT22;1938;50.812;7.738;2023-03-01T17:44:06;3.70;1.00
3846;DHT22;1938;50.812;7.738;2023-03-01T17:46:32;3.60;1.00
3846;DHT22;1938;50.812;7.738;2023-03-01T17:48:58;3.50;1.00
3846;DHT22;1938;50.812;7.738;2023-03-01T17:51:23;3.50;1.00
3846;DHT22;1938;50.812;7.738;2023-03-01T17:53:49;3.40;1.00
3846;DHT22;1938;50.812;7.738;2023-03-01T17:56:14;3.50;1.00
3846;DHT22;1938;50.812;7.738;2023-03-01T17:58:40;3.40;1.00
3846;DHT22;1938;50.812;7.738;2023-03-01T18:01:15;3.30;1.00
3846;DHT22;1938;50.812;7.738;2023-03-01T18:03:42;3.20;1.00
3846;DHT22;1938;50.812;7.738;2023-03-01T18:06:16;3.20;1.00
3846;DHT22;1938;50.812;7.738;2023-03-01T18:08:42;3.10;1.00
3846;DHT22;1938;50.812;7.738;2023-03-01T18:11:10;3.10;1.00
3846;DHT22;1938;50.812;7.738;2023-03-01T18:13:36;3.10;1.00
3846;DHT22;1938;50.812;7.738;2023-03-01T18:16:10;3.10;1.00